Time;durP1;ratioP1;P1;durP2;ratioP2;P2;SDS_P1;SDS_P2;PMS_P1;PMS_P2;Temp;Humidity;BMP_temperature;BMP_pressure;BME280_temperature;BME280_humidity;BME280_pressure;Samples;Min_cycle;Max_cycle;Signal;HPM_P1;HPM_P2
2022/06/26 00:00:32;;;;;;;10.60;8.70;;;;;;;;;;5057880;28;20025;-77
2022/06/26 00:02:58;;;;;;;12.52;9.27;;;;;;;;;;5058818;28;20029;-74
2022/06/26 00:05:24;;;;;;;18.83;9.05;;;;;;;;;;5057572;28;20079;-75
2022/06/26 00:07:50;;;;;;;13.75;8.75;;;;;;;;;;5057927;28;20105;-76
2022/06/26 00:10:16;;;;;;;14.75;8.85;;;;;;;;;;5065806;28;20013;-72
2022/06/26 00:12:42;;;;;;;16.02;8.57;;;;;;;;;;5079378;28;20129;-76
2022/06/26 00:15:08;;;;;;;10.93;8.48;;;;;;;;;;5081129;28;20024;-71
2022/06/26 00:17:34;;;;;;;14.10;8.48;;;;;;;;;;5071863;28;20044;-75
2022/06/26 00:20:00;;;;;;;16.20;8.82;;;;;;;;;;5066338;28;20505;-78
2022/06/26 00:22:26;;;;;;;12.15;8.45;;;;;;;;;;5066572;28;20251;-78
2022/06/26 00:24:52;;;;;;;13.77;8.80;;;;;;;;;;5067181;28;20100;-75
2022/06/26 00:27:19;;;;;;;12.45;8.82;;;;;;;;;;5066837;28;20062;-75
2022/06/26 00:29:45;;;;;;;17.15;9.85;;;;;;;;;;5066576;28;20470;-78
2022/06/26 00:32:11;;;;;;;13.65;8.93;;;;;;;;;;5066273;28;20074;-76
2022/06/26 00:34:37;;;;;;;15.18;8.63;;;;;;;;;;5100699;22;20187;-76
2022/06/26 00:37:03;;;;;;;18.13;9.13;;;;;;;;;;5055382;28;20040;-76
2022/06/26 00:39:29;;;;;;;16.85;9.18;;;;;;;;;;5055552;28;20389;-77
2022/06/26 00:41:55;;;;;;;13.52;9.27;;;;;;;;;;5055660;28;20021;-76
2022/06/26 00:44:23;;;;;;;14.25;8.68;;;;;;;;;;5055131;28;20094;-76
2022/06/26 00:46:49;;;;;;;10.90;8.10;;;;;;;;;;5056139;28;20033;-76
2022/06/26 00:49:15;;;;;;;13.52;9.15;;;;;;;;;;5057544;28;20055;-78
2022/06/26 00:51:44;;;;;;;18.23;9.15;;;;;;;;;;5057121;28;20029;-78
2022/06/26 00:54:10;;;;;;;13.55;9.20;;;;;;;;;;5055002;28;20035;-75
2022/06/26 00:56:37;;;;;;;12.60;8.75;;;;;;;;;;5055198;28;20048;-76
2022/06/26 00:59:03;;;;;;;16.30;9.15;;;;;;;;;;5055030;28;20482;-75
2022/06/26 01:01:29;;;;;;;11.68;8.77;;;;;;;;;;5054862;28;20029;-76
2022/06/26 01:03:55;;;;;;;13.77;8.73;;;;;;;;;;5055514;28;20032;-75
2022/06/26 01:06:21;;;;;;;13.07;8.48;;;;;;;;;;5054130;28;20029;-79
2022/06/26 01:08:48;;;;;;;13.95;8.82;;;;;;;;;;5054285;28;20115;-78
2022/06/26 01:11:23;;;;;;;15.70;9.65;;;;;;;;;;5054877;28;20029;-78
2022/06/26 01:13:50;;;;;;;12.82;8.43;;;;;;;;;;5056956;28;20033;-76
2022/06/26 01:16:17;;;;;;;14.63;9.48;;;;;;;;;;5059508;28;20029;-77
2022/06/26 01:18:48;;;;;;;13.18;8.68;;;;;;;;;;5056376;28;20474;-76
2022/06/26 01:21:15;;;;;;;11.77;8.27;;;;;;;;;;5054533;28;20021;-76
2022/06/26 01:23:41;;;;;;;11.10;8.20;;;;;;;;;;5055353;28;20088;-76
2022/06/26 01:26:07;;;;;;;12.13;8.35;;;;;;;;;;5067729;28;20025;-79
2022/06/26 01:28:33;;;;;;;14.07;8.63;;;;;;;;;;5070215;28;20074;-75
2022/06/26 01:30:59;;;;;;;12.93;8.60;;;;;;;;;;5054851;28;20021;-75
2022/06/26 01:33:25;;;;;;;13.10;8.55;;;;;;;;;;5054330;28;20037;-75
2022/06/26 01:35:51;;;;;;;11.60;8.88;;;;;;;;;;5054060;28;20530;-75
2022/06/26 01:38:17;;;;;;;12.00;8.98;;;;;;;;;;5054190;28;20111;-77
2022/06/26 01:40:44;;;;;;;14.27;8.55;;;;;;;;;;5053361;28;20025;-77
2022/06/26 01:43:12;;;;;;;12.90;9.07;;;;;;;;;;5052711;28;20039;-76
2022/06/26 01:45:42;;;;;;;12.68;8.88;;;;;;;;;;5055447;28;20424;-74
2022/06/26 01:48:08;;;;;;;18.08;8.75;;;;;;;;;;5062390;28;20032;-74
2022/06/26 01:50:34;;;;;;;12.20;8.32;;;;;;;;;;5066868;28;20029;-74
2022/06/26 01:53:00;;;;;;;15.38;8.45;;;;;;;;;;5066463;28;20048;-74
2022/06/26 01:55:26;;;;;;;12.48;8.73;;;;;;;;;;5064004;28;20028;-75
2022/06/26 01:57:52;;;;;;;11.00;8.13;;;;;;;;;;5067095;28;20021;-78
2022/06/26 02:00:18;;;;;;;13.30;7.70;;;;;;;;;;5077022;28;20151;-77
2022/06/26 02:02:44;;;;;;;13.02;8.80;;;;;;;;;;5060248;28;20029;-75
2022/06/26 02:05:10;;;;;;;9.10;8.00;;;;;;;;;;5053697;28;20048;-77
2022/06/26 02:07:36;;;;;;;10.23;8.18;;;;;;;;;;5053549;28;20143;-76
2022/06/26 02:15:31;;;;;;;12.40;9.13;;;;;;;;;;5054301;28;20035;-75
2022/06/26 02:17:57;;;;;;;11.60;8.77;;;;;;;;;;5056180;28;20025;-76
2022/06/26 02:20:23;;;;;;;12.60;8.75;;;;;;;;;;5054112;28;20025;-76
2022/06/26 02:22:49;;;;;;;13.25;8.98;;;;;;;;;;5053487;28;20087;-76
2022/06/26 02:25:15;;;;;;;13.20;8.05;;;;;;;;;;5053618;28;20036;-78
2022/06/26 02:27:40;;;;;;;11.27;8.60;;;;;;;;;;5057923;28;20043;-76
2022/06/26 02:30:07;;;;;;;11.85;8.43;;;;;;;;;;5056278;28;20493;-75
2022/06/26 02:32:32;;;;;;;12.73;8.23;;;;;;;;;;5053517;28;20397;-74
2022/06/26 02:34:58;;;;;;;17.25;11.30;;;;;;;;;;5053796;28;20037;-76
2022/06/26 02:37:24;;;;;;;20.23;13.93;;;;;;;;;;5051183;28;20029;-75
2022/06/26 02:39:50;;;;;;;14.68;9.55;;;;;;;;;;5052882;28;20473;-75
2022/06/26 02:42:16;;;;;;;15.90;9.88;;;;;;;;;;5052925;28;20108;-75
2022/06/26 02:44:42;;;;;;;14.43;10.73;;;;;;;;;;5052397;28;20086;-75
2022/06/26 02:47:08;;;;;;;15.13;9.18;;;;;;;;;;5052511;28;20071;-75
2022/06/26 02:49:34;;;;;;;11.68;8.50;;;;;;;;;;5056465;28;20096;-75
2022/06/26 02:52:00;;;;;;;11.25;9.18;;;;;;;;;;5059919;28;20025;-75
2022/06/26 02:54:26;;;;;;;11.52;8.57;;;;;;;;;;5060699;28;20029;-74
2022/06/26 02:56:52;;;;;;;10.73;9.07;;;;;;;;;;5058249;28;20040;-74
2022/06/26 02:59:18;;;;;;;11.93;9.13;;;;;;;;;;5058071;28;20040;-75
2022/06/26 03:01:44;;;;;;;11.73;9.25;;;;;;;;;;5052381;28;20033;-74
2022/06/26 03:04:10;;;;;;;11.98;8.90;;;;;;;;;;5052092;28;20049;-74
2022/06/26 03:06:37;;;;;;;13.65;9.38;;;;;;;;;;5051481;28;20032;-75
2022/06/26 03:09:03;;;;;;;11.98;9.00;;;;;;;;;;5052568;28;20024;-74
2022/06/26 03:11:29;;;;;;;14.02;9.93;;;;;;;;;;5052221;28;20103;-74
2022/06/26 03:13:56;;;;;;;19.77;12.20;;;;;;;;;;5052197;28;20086;-75
2022/06/26 03:16:22;;;;;;;20.50;14.70;;;;;;;;;;5052457;28;20021;-74
2022/06/26 03:18:48;;;;;;;17.58;10.23;;;;;;;;;;5052558;28;20031;-75
2022/06/26 03:21:14;;;;;;;12.40;9.38;;;;;;;;;;5052306;28;20056;-75
2022/06/26 03:26:24;;;;;;;11.65;10.23;;;;;;;;;;5052216;28;20095;-75
2022/06/26 03:28:50;;;;;;;12.27;10.07;;;;;;;;;;5050920;28;20465;-74
2022/06/26 03:31:16;;;;;;;17.90;11.30;;;;;;;;;;5052239;28;20021;-75
2022/06/26 03:33:42;;;;;;;14.00;10.15;;;;;;;;;;5051743;28;20045;-75
2022/06/26 03:36:08;;;;;;;16.38;10.43;;;;;;;;;;5051777;28;20025;-75
2022/06/26 03:38:35;;;;;;;13.45;9.93;;;;;;;;;;5051824;28;20024;-74
2022/06/26 03:41:01;;;;;;;15.90;10.95;;;;;;;;;;5051946;28;20039;-75
2022/06/26 03:43:27;;;;;;;12.55;10.05;;;;;;;;;;5051915;28;20029;-74
2022/06/26 03:45:53;;;;;;;15.05;11.00;;;;;;;;;;5051361;28;20025;-75
2022/06/26 03:48:19;;;;;;;12.23;10.40;;;;;;;;;;5051754;28;20036;-74
2022/06/26 03:50:45;;;;;;;15.13;11.35;;;;;;;;;;5051789;28;20044;-74
2022/06/26 03:53:11;;;;;;;16.98;12.82;;;;;;;;;;5050218;28;20394;-74
2022/06/26 03:55:37;;;;;;;25.92;16.05;;;;;;;;;;5051266;28;20029;-74
2022/06/26 03:58:03;;;;;;;23.98;17.58;;;;;;;;;;5051782;28;20029;-74
2022/06/26 04:00:29;;;;;;;18.02;13.07;;;;;;;;;;5051570;28;20482;-73
2022/06/26 04:02:55;;;;;;;17.48;12.27;;;;;;;;;;5051590;28;20025;-75
2022/06/26 04:05:21;;;;;;;18.02;12.20;;;;;;;;;;5051530;28;20025;-75
2022/06/26 04:07:47;;;;;;;14.35;10.95;;;;;;;;;;5051853;28;20458;-75
2022/06/26 04:10:14;;;;;;;15.98;11.27;;;;;;;;;;5051963;28;20039;-73
2022/06/26 04:12:40;;;;;;;13.63;10.77;;;;;;;;;;5051707;28;20029;-75
2022/06/26 04:15:06;;;;;;;16.08;10.95;;;;;;;;;;5052173;28;20465;-74
2022/06/26 04:17:32;;;;;;;13.68;10.43;;;;;;;;;;5051530;28;20040;-73
2022/06/26 04:19:58;;;;;;;16.42;11.48;;;;;;;;;;5051817;28;20041;-74
2022/06/26 04:22:24;;;;;;;16.67;12.18;;;;;;;;;;5051468;28;20114;-74
2022/06/26 04:24:50;;;;;;;15.73;11.10;;;;;;;;;;5051734;28;20029;-75
2022/06/26 04:27:16;;;;;;;12.93;11.02;;;;;;;;;;5051946;28;20028;-75
2022/06/26 04:29:42;;;;;;;12.60;10.82;;;;;;;;;;5052127;28;20117;-75
2022/06/26 04:32:08;;;;;;;14.73;12.07;;;;;;;;;;5052055;28;20112;-75
2022/06/26 04:34:34;;;;;;;17.33;12.60;;;;;;;;;;5052214;28;20025;-74
2022/06/26 04:37:00;;;;;;;13.18;11.13;;;;;;;;;;5065669;28;20078;-73
2022/06/26 04:39:26;;;;;;;13.95;12.02;;;;;;;;;;5067880;28;20032;-73
2022/06/26 04:41:52;;;;;;;18.95;11.20;;;;;;;;;;5054187;28;20021;-73
2022/06/26 04:44:18;;;;;;;17.75;11.05;;;;;;;;;;5051383;28;20106;-76
2022/06/26 04:46:46;;;;;;;12.48;10.30;;;;;;;;;;5051648;28;20132;-76
2022/06/26 04:49:12;;;;;;;13.48;11.00;;;;;;;;;;5051669;28;20017;-74
2022/06/26 04:51:38;;;;;;;13.40;10.50;;;;;;;;;;5051540;28;20075;-75
2022/06/26 04:54:05;;;;;;;16.58;11.50;;;;;;;;;;5052865;28;20390;-76
2022/06/26 04:56:31;;;;;;;14.73;10.95;;;;;;;;;;5056373;28;20071;-75
2022/06/26 04:58:57;;;;;;;13.68;10.65;;;;;;;;;;5059525;28;20029;-76
2022/06/26 05:01:24;;;;;;;16.38;10.75;;;;;;;;;;5055026;28;20040;-76
2022/06/26 05:03:50;;;;;;;15.68;10.30;;;;;;;;;;5053508;28;20032;-76
2022/06/26 05:06:16;;;;;;;14.00;10.50;;;;;;;;;;5054745;28;20530;-76
2022/06/26 05:08:42;;;;;;;19.77;10.82;;;;;;;;;;5054642;28;20040;-76
2022/06/26 05:11:08;;;;;;;16.05;11.38;;;;;;;;;;5055047;28;20474;-76
2022/06/26 05:13:34;;;;;;;14.80;11.02;;;;;;;;;;5053040;28;20060;-78
2022/06/26 05:16:00;;;;;;;13.10;10.27;;;;;;;;;;5052885;28;20070;-77
2022/06/26 05:18:26;;;;;;;15.80;10.27;;;;;;;;;;5053448;28;20025;-75
2022/06/26 05:20:52;;;;;;;19.17;11.23;;;;;;;;;;5053438;28;20107;-76
2022/06/26 05:23:18;;;;;;;14.57;9.95;;;;;;;;;;5053111;28;20467;-76
2022/06/26 05:25:44;;;;;;;16.15;10.00;;;;;;;;;;5052469;28;20040;-75
2022/06/26 05:28:10;;;;;;;14.57;10.27;;;;;;;;;;5052745;28;20067;-77
2022/06/26 05:30:36;;;;;;;14.80;10.48;;;;;;;;;;5053316;28;20013;-77
2022/06/26 05:33:02;;;;;;;10.90;9.50;;;;;;;;;;5051828;28;20033;-77
2022/06/26 05:35:28;;;;;;;14.52;9.55;;;;;;;;;;5053626;28;20363;-77
2022/06/26 05:37:54;;;;;;;18.58;10.02;;;;;;;;;;5054431;28;20108;-75
2022/06/26 05:40:20;;;;;;;11.52;8.75;;;;;;;;;;5056419;28;20060;-75
2022/06/26 05:42:46;;;;;;;9.80;8.55;;;;;;;;;;5056732;28;20342;-75
2022/06/26 05:45:12;;;;;;;14.45;9.45;;;;;;;;;;5055539;28;20100;-77
2022/06/26 05:47:38;;;;;;;16.25;9.88;;;;;;;;;;5055025;28;20021;-77
2022/06/26 05:50:04;;;;;;;12.98;8.73;;;;;;;;;;5054666;28;20536;-75
2022/06/26 05:52:30;;;;;;;11.40;8.70;;;;;;;;;;5055889;28;20409;-76
2022/06/26 05:54:56;;;;;;;12.13;8.85;;;;;;;;;;5056448;28;20032;-76
2022/06/26 05:57:23;;;;;;;10.63;8.45;;;;;;;;;;5060879;28;20040;-75
2022/06/26 05:59:49;;;;;;;12.82;8.10;;;;;;;;;;5053699;28;20029;-76
2022/06/26 06:02:15;;;;;;;12.45;8.95;;;;;;;;;;5053989;28;20052;-78
2022/06/26 06:04:41;;;;;;;17.15;9.70;;;;;;;;;;5053535;28;20517;-78
2022/06/26 06:07:07;;;;;;;16.45;9.38;;;;;;;;;;5052869;28;20028;-77
2022/06/26 06:09:33;;;;;;;14.40;9.50;;;;;;;;;;5053281;28;20029;-78
2022/06/26 06:11:59;;;;;;;10.95;7.95;;;;;;;;;;5053476;28;20036;-75
2022/06/26 06:14:25;;;;;;;14.65;8.85;;;;;;;;;;5053153;28;20025;-73
2022/06/26 06:16:51;;;;;;;10.90;8.00;;;;;;;;;;5053088;28;20057;-74
2022/06/26 06:19:17;;;;;;;11.05;7.85;;;;;;;;;;5053281;28;20037;-75
2022/06/26 06:21:42;;;;;;;13.32;7.90;;;;;;;;;;5053109;28;20029;-74
2022/06/26 06:24:08;;;;;;;13.93;7.82;;;;;;;;;;5053277;28;20043;-75
2022/06/26 06:26:35;;;;;;;11.80;7.50;;;;;;;;;;5052820;28;20029;-74
2022/06/26 06:29:01;;;;;;;12.38;8.05;;;;;;;;;;5053101;28;20017;-75
2022/06/26 06:31:27;;;;;;;9.57;7.68;;;;;;;;;;5053270;28;20156;-75
2022/06/26 06:33:53;;;;;;;16.08;10.07;;;;;;;;;;5053558;28;20028;-76
2022/06/26 06:36:19;;;;;;;14.68;9.13;;;;;;;;;;5053577;28;20055;-75
2022/06/26 06:38:45;;;;;;;15.25;8.45;;;;;;;;;;5053583;28;20029;-76
2022/06/26 06:41:11;;;;;;;10.23;7.60;;;;;;;;;;5052473;28;20025;-77
2022/06/26 06:43:37;;;;;;;11.88;7.68;;;;;;;;;;5053647;28;20032;-75
2022/06/26 06:46:03;;;;;;;10.15;6.88;;;;;;;;;;5055557;28;20032;-75
2022/06/26 06:48:29;;;;;;;11.20;7.65;;;;;;;;;;5060109;28;20405;-77
2022/06/26 06:50:55;;;;;;;11.40;6.90;;;;;;;;;;5056873;28;20462;-77
2022/06/26 06:53:21;;;;;;;11.05;6.68;;;;;;;;;;5057353;28;20493;-76
2022/06/26 06:55:47;;;;;;;9.75;6.35;;;;;;;;;;5058312;28;20037;-76
2022/06/26 06:58:13;;;;;;;11.05;5.40;;;;;;;;;;5058803;28;20029;-75
2022/06/26 07:00:40;;;;;;;7.40;5.55;;;;;;;;;;5062613;28;20020;-75
2022/06/26 07:03:06;;;;;;;12.02;6.40;;;;;;;;;;5073745;28;20040;-75
2022/06/26 07:05:33;;;;;;;8.23;6.63;;;;;;;;;;5072388;28;20044;-73
2022/06/26 07:07:59;;;;;;;7.85;5.32;;;;;;;;;;5069729;28;20047;-73
2022/06/26 07:10:25;;;;;;;11.73;5.90;;;;;;;;;;5066121;28;20059;-76
2022/06/26 07:12:52;;;;;;;10.40;5.97;;;;;;;;;;5059523;28;20033;-75
2022/06/26 07:15:18;;;;;;;16.20;5.93;;;;;;;;;;5053319;28;20029;-75
2022/06/26 07:17:44;;;;;;;9.63;5.57;;;;;;;;;;5052593;28;20037;-76
2022/06/26 07:20:10;;;;;;;12.73;7.57;;;;;;;;;;5052574;28;20079;-76
2022/06/26 07:22:36;;;;;;;9.68;6.10;;;;;;;;;;5053083;28;20084;-76
2022/06/26 07:25:02;;;;;;;8.55;5.90;;;;;;;;;;5053582;28;20048;-76
2022/06/26 07:27:29;;;;;;;7.25;5.30;;;;;;;;;;5053545;28;20029;-76
2022/06/26 07:29:55;;;;;;;8.30;5.38;;;;;;;;;;5054680;28;20029;-76
2022/06/26 07:32:20;;;;;;;7.78;5.25;;;;;;;;;;5053123;28;20028;-76
2022/06/26 07:34:46;;;;;;;6.97;4.97;;;;;;;;;;5053286;28;20033;-76
2022/06/26 07:37:12;;;;;;;6.72;4.93;;;;;;;;;;5053178;28;20108;-76
2022/06/26 07:39:38;;;;;;;10.70;5.28;;;;;;;;;;5052947;28;20062;-76
2022/06/26 07:42:05;;;;;;;5.75;4.55;;;;;;;;;;5052360;28;20441;-75
2022/06/26 07:44:31;;;;;;;9.90;4.65;;;;;;;;;;5052519;28;20029;-75
2022/06/26 07:46:57;;;;;;;10.02;4.95;;;;;;;;;;5052086;28;20028;-76
2022/06/26 07:49:23;;;;;;;8.65;4.28;;;;;;;;;;5052241;28;20072;-75
2022/06/26 07:51:49;;;;;;;8.20;4.90;;;;;;;;;;5052238;28;20122;-75
2022/06/26 07:54:15;;;;;;;6.10;4.28;;;;;;;;;;5052307;28;20033;-74
2022/06/26 07:56:41;;;;;;;7.57;4.10;;;;;;;;;;5052090;28;20067;-74
2022/06/26 07:59:07;;;;;;;9.07;4.28;;;;;;;;;;5052361;28;20465;-76
2022/06/26 08:01:33;;;;;;;7.78;4.43;;;;;;;;;;5052255;28;20033;-75
2022/06/26 08:04:00;;;;;;;8.32;4.20;;;;;;;;;;5052377;28;20025;-76
2022/06/26 08:06:26;;;;;;;7.35;4.00;;;;;;;;;;5052258;28;20536;-74
2022/06/26 08:08:52;;;;;;;5.75;3.25;;;;;;;;;;5053323;28;20394;-75
2022/06/26 08:11:18;;;;;;;6.90;3.35;;;;;;;;;;5052809;28;20025;-74
2022/06/26 08:13:44;;;;;;;8.57;3.25;;;;;;;;;;5054441;28;20147;-76
2022/06/26 08:16:10;;;;;;;4.68;2.90;;;;;;;;;;5061714;28;20025;-75
2022/06/26 08:18:36;;;;;;;6.65;4.00;;;;;;;;;;5059454;28;20040;-73
2022/06/26 08:22:00;;;;;;;8.50;3.05;;;;;;;;;;5054803;28;20029;-73
2022/06/26 08:23:48;;;;;;;7.13;3.67;;;;;;;;;;5052793;28;20086;-74
2022/06/26 08:26:14;;;;;;;8.20;3.20;;;;;;;;;;5049795;28;20045;-75
2022/06/26 08:28:40;;;;;;;9.23;2.78;;;;;;;;;;5050791;28;20375;-73
2022/06/26 08:31:06;;;;;;;7.28;3.17;;;;;;;;;;5051352;28;20029;-75
2022/06/26 08:33:32;;;;;;;9.52;3.20;;;;;;;;;;5053177;28;20041;-76
2022/06/26 08:35:58;;;;;;;4.50;2.50;;;;;;;;;;5053921;28;20112;-76
2022/06/26 08:38:24;;;;;;;4.68;2.75;;;;;;;;;;5054807;28;20029;-75
2022/06/26 08:40:50;;;;;;;6.55;3.00;;;;;;;;;;5050629;28;20086;-74
2022/06/26 08:43:21;;;;;;;5.18;3.00;;;;;;;;;;5055175;28;20683;-75
2022/06/26 08:45:48;;;;;;;8.73;2.83;;;;;;;;;;5056440;28;20024;-74
2022/06/26 08:48:16;;;;;;;6.35;2.60;;;;;;;;;;5072570;28;20095;-75
2022/06/26 08:50:43;;;;;;;6.15;3.00;;;;;;;;;;5071323;28;20021;-77
2022/06/26 08:53:10;;;;;;;4.45;3.00;;;;;;;;;;5067650;28;20048;-74
2022/06/26 08:55:36;;;;;;;10.98;2.67;;;;;;;;;;5072302;28;20064;-75
2022/06/26 08:58:02;;;;;;;6.85;2.85;;;;;;;;;;5069336;28;20079;-73
2022/06/26 09:00:30;;;;;;;10.70;2.65;;;;;;;;;;5071509;28;20025;-75
2022/06/26 09:02:56;;;;;;;6.60;2.30;;;;;;;;;;5057766;28;20095;-75
2022/06/26 09:05:21;;;;;;;4.60;2.67;;;;;;;;;;5056452;28;20021;-75
2022/06/26 09:07:52;;;;;;;5.03;2.03;;;;;;;;;;5054741;28;20036;-74
2022/06/26 09:10:19;;;;;;;8.52;3.33;;;;;;;;;;5052653;28;20509;-74
2022/06/26 09:12:55;;;;;;;7.45;2.15;;;;;;;;;;5053880;28;20055;-75
2022/06/26 09:15:21;;;;;;;5.15;2.33;;;;;;;;;;5053347;28;20094;-75
2022/06/26 09:17:54;;;;;;;3.65;2.40;;;;;;;;;;5053799;28;20037;-74
2022/06/26 09:20:20;;;;;;;3.08;2.30;;;;;;;;;;5054938;28;20033;-75
2022/06/26 09:22:56;;;;;;;5.78;3.00;;;;;;;;;;5055010;28;20084;-77
2022/06/26 09:25:44;;;;;;;4.18;2.38;;;;;;;;;;5054402;28;20029;-74
2022/06/26 09:28:10;;;;;;;9.25;2.75;;;;;;;;;;5053859;28;20049;-75
2022/06/26 09:31:06;;;;;;;9.25;2.75;;;;;;;;;;5064519;28;20025;-75
2022/06/26 09:33:33;;;;;;;6.82;2.78;;;;;;;;;;5057896;28;20037;-74
2022/06/26 09:36:00;;;;;;;6.00;2.95;;;;;;;;;;5076491;28;20029;-73
2022/06/26 09:38:28;;;;;;;5.10;2.47;;;;;;;;;;5076694;28;20124;-72
2022/06/26 09:41:04;;;;;;;4.70;2.85;;;;;;;;;;5077642;28;20024;-74
2022/06/26 09:43:31;;;;;;;5.68;2.50;;;;;;;;;;5059899;28;20044;-74
2022/06/26 09:45:59;;;;;;;10.43;2.88;;;;;;;;;;5051124;28;20028;-76
2022/06/26 09:48:25;;;;;;;7.10;2.60;;;;;;;;;;5052283;28;20051;-73
2022/06/26 09:50:51;;;;;;;11.23;2.85;;;;;;;;;;5052753;28;20017;-75
2022/06/26 09:53:18;;;;;;;7.25;2.45;;;;;;;;;;5053646;28;20021;-76
2022/06/26 09:55:44;;;;;;;5.88;3.22;;;;;;;;;;5052514;28;20025;-74
2022/06/26 09:58:10;;;;;;;4.88;2.67;;;;;;;;;;5052547;28;20033;-76
2022/06/26 10:00:36;;;;;;;3.15;2.58;;;;;;;;;;5053459;28;20055;-76
2022/06/26 10:08:36;;;;;;;5.88;2.33;;;;;;;;;;5053982;28;20036;-74
2022/06/26 10:11:03;;;;;;;6.88;2.58;;;;;;;;;;5051544;28;20025;-77
2022/06/26 10:13:30;;;;;;;4.15;2.70;;;;;;;;;;5054333;28;20025;-76
2022/06/26 10:16:08;;;;;;;5.10;2.70;;;;;;;;;;5052231;28;20025;-76
2022/06/26 10:18:34;;;;;;;6.72;2.70;;;;;;;;;;5054130;28;20466;-76
2022/06/26 10:21:08;;;;;;;5.75;3.33;;;;;;;;;;5053334;28;20033;-74
2022/06/26 10:23:35;;;;;;;8.23;2.97;;;;;;;;;;5052518;28;20021;-75
2022/06/26 10:26:14;;;;;;;5.38;2.80;;;;;;;;;;5052928;28;20326;-76
2022/06/26 10:28:56;;;;;;;5.97;2.75;;;;;;;;;;5053000;28;20378;-75
2022/06/26 10:31:23;;;;;;;6.82;3.30;;;;;;;;;;5053205;28;20057;-75
2022/06/26 10:33:49;;;;;;;20.40;3.70;;;;;;;;;;5050007;28;20151;-75
2022/06/26 10:36:23;;;;;;;6.72;3.58;;;;;;;;;;5050844;28;20024;-76
2022/06/26 10:38:49;;;;;;;;;;;;;;;;;;5053079;28;20035;-76
2022/06/26 10:44:03;;;;;;;8.65;3.45;;;;;;;;;;5052241;28;20171;-76
2022/06/26 10:46:39;;;;;;;7.78;4.00;;;;;;;;;;5051358;28;20091;-75
2022/06/26 10:49:08;;;;;;;8.48;4.13;;;;;;;;;;5050385;28;20104;-74
2022/06/26 10:51:38;;;;;;;9.65;4.88;;;;;;;;;;5049859;28;20032;-76
2022/06/26 10:54:04;;;;;;;12.68;4.85;;;;;;;;;;5048779;28;20052;-74
2022/06/26 10:56:30;;;;;;;10.88;4.18;;;;;;;;;;5050080;28;20021;-75
2022/06/26 10:59:00;;;;;;;7.82;4.00;;;;;;;;;;5050694;28;20033;-74
2022/06/26 11:01:27;;;;;;;9.00;4.88;;;;;;;;;;5051042;28;20056;-73
2022/06/26 11:03:53;;;;;;;9.13;4.32;;;;;;;;;;5049786;28;20460;-75
2022/06/26 11:06:19;;;;;;;14.90;5.65;;;;;;;;;;5049908;28;20486;-75
2022/06/26 11:08:45;;;;;;;11.73;4.45;;;;;;;;;;5050388;28;20575;-76
2022/06/26 11:11:14;;;;;;;8.25;4.22;;;;;;;;;;5050386;28;20033;-74
2022/06/26 11:13:55;;;;;;;11.50;4.55;;;;;;;;;;5048867;28;20021;-75
2022/06/26 11:16:34;;;;;;;13.40;4.25;;;;;;;;;;5048683;28;20547;-74
2022/06/26 11:19:01;;;;;;;10.52;5.13;;;;;;;;;;5052503;28;20024;-76
2022/06/26 11:21:27;;;;;;;7.70;4.38;;;;;;;;;;5051950;28;20044;-76
2022/06/26 11:23:53;;;;;;;7.78;4.85;;;;;;;;;;5052352;28;20489;-76
2022/06/26 11:26:21;;;;;;;7.68;4.20;;;;;;;;;;5052102;28;20061;-76
2022/06/26 11:28:54;;;;;;;8.07;4.00;;;;;;;;;;5052304;28;20096;-75
2022/06/26 11:31:21;;;;;;;7.13;3.60;;;;;;;;;;5052821;28;20021;-77
2022/06/26 11:33:47;;;;;;;10.52;4.15;;;;;;;;;;5049654;28;20432;-74
2022/06/26 11:36:14;;;;;;;12.82;3.83;;;;;;;;;;5050519;28;20028;-77
2022/06/26 11:38:47;;;;;;;8.90;5.18;;;;;;;;;;5051718;28;20416;-77
2022/06/26 11:41:13;;;;;;;7.68;4.40;;;;;;;;;;5051444;28;20048;-76
2022/06/26 11:43:44;;;;;;;6.90;4.18;;;;;;;;;;5049418;28;20053;-75
2022/06/26 11:46:10;;;;;;;7.03;4.78;;;;;;;;;;5049513;28;20100;-76
2022/06/26 11:48:36;;;;;;;7.63;4.45;;;;;;;;;;5051809;28;20117;-75
2022/06/26 11:51:02;;;;;;;8.10;3.75;;;;;;;;;;5051944;28;20029;-75
2022/06/26 11:53:29;;;;;;;8.77;3.88;;;;;;;;;;5053792;28;20031;-75
2022/06/26 11:55:59;;;;;;;7.07;4.78;;;;;;;;;;5054954;28;20021;-75
2022/06/26 11:58:28;;;;;;;8.18;4.95;;;;;;;;;;5056005;28;20471;-74
2022/06/26 12:01:03;;;;;;;5.85;4.05;;;;;;;;;;5060018;28;20155;-75
2022/06/26 12:03:29;;;;;;;8.32;4.80;;;;;;;;;;5055160;28;20033;-76
2022/06/26 12:05:55;;;;;;;10.13;4.25;;;;;;;;;;5065815;28;20032;-74
2022/06/26 12:08:21;;;;;;;5.90;3.70;;;;;;;;;;5079338;28;20009;-74
2022/06/26 12:10:50;;;;;;;8.98;5.20;;;;;;;;;;5076082;28;20035;-75
2022/06/26 12:13:29;;;;;;;9.13;4.75;;;;;;;;;;5073762;28;20232;-75
2022/06/26 12:16:02;;;;;;;11.05;4.90;;;;;;;;;;5061696;28;20078;-74
2022/06/26 12:18:28;;;;;;;21.15;8.90;;;;;;;;;;5056483;28;20070;-75
2022/06/26 12:20:54;;;;;;;9.75;5.50;;;;;;;;;;5057110;28;20056;-76
2022/06/26 12:23:30;;;;;;;8.48;4.57;;;;;;;;;;5056797;28;20017;-76
2022/06/26 12:26:03;;;;;;;9.15;3.90;;;;;;;;;;5056465;28;20025;-76
2022/06/26 12:28:29;;;;;;;10.27;3.57;;;;;;;;;;5056413;28;20138;-77
2022/06/26 12:30:55;;;;;;;8.23;3.08;;;;;;;;;;5056723;28;20060;-75
2022/06/26 12:33:21;;;;;;;7.53;3.28;;;;;;;;;;5071705;23;20086;-72
2022/06/26 12:35:47;;;;;;;10.00;2.78;;;;;;;;;;5055890;28;20044;-74
2022/06/26 12:38:18;;;;;;;6.32;3.60;;;;;;;;;;5080649;28;20051;-75
2022/06/26 12:40:44;;;;;;;9.10;3.55;;;;;;;;;;5069868;28;20052;-75
2022/06/26 12:43:10;;;;;;;11.85;4.57;;;;;;;;;;5058270;28;20497;-75
2022/06/26 12:45:36;;;;;;;7.40;3.92;;;;;;;;;;5057076;28;20017;-74
2022/06/26 12:48:02;;;;;;;7.85;3.65;;;;;;;;;;5056615;28;20092;-75
2022/06/26 12:50:28;;;;;;;8.15;3.95;;;;;;;;;;5060383;28;20025;-75
2022/06/26 12:52:54;;;;;;;8.10;4.00;;;;;;;;;;5059079;28;20541;-75
2022/06/26 12:55:20;;;;;;;10.75;4.60;;;;;;;;;;5056918;28;20029;-76
2022/06/26 12:57:46;;;;;;;10.32;4.50;;;;;;;;;;5055933;28;20473;-75
2022/06/26 13:00:12;;;;;;;7.47;4.22;;;;;;;;;;5055129;28;20427;-75
2022/06/26 13:02:38;;;;;;;7.22;3.15;;;;;;;;;;5056692;28;20029;-74
2022/06/26 13:05:04;;;;;;;10.30;3.80;;;;;;;;;;5058784;28;20021;-76
2022/06/26 13:07:30;;;;;;;5.28;3.03;;;;;;;;;;5057113;28;20099;-75
2022/06/26 13:09:56;;;;;;;6.70;3.42;;;;;;;;;;5057186;28;20027;-74
2022/06/26 13:12:22;;;;;;;6.78;3.63;;;;;;;;;;5057341;28;20113;-76
2022/06/26 13:14:48;;;;;;;6.10;3.15;;;;;;;;;;5056476;28;20052;-75
2022/06/26 13:17:14;;;;;;;4.40;2.72;;;;;;;;;;5057319;28;20032;-74
2022/06/26 13:19:40;;;;;;;8.40;3.25;;;;;;;;;;5057771;28;20044;-76
2022/06/26 13:22:07;;;;;;;10.70;2.80;;;;;;;;;;5059835;28;20028;-75
2022/06/26 13:24:33;;;;;;;7.32;3.25;;;;;;;;;;5059409;28;20025;-75
2022/06/26 13:26:59;;;;;;;6.57;3.10;;;;;;;;;;5064388;28;20025;-76
2022/06/26 13:29:25;;;;;;;4.78;2.38;;;;;;;;;;5064462;28;20033;-77
2022/06/26 13:31:52;;;;;;;8.05;4.57;;;;;;;;;;5074290;28;20028;-74
2022/06/26 13:34:18;;;;;;;6.40;2.42;;;;;;;;;;5059041;28;20464;-75
2022/06/26 13:36:44;;;;;;;5.05;2.50;;;;;;;;;;5056976;28;20024;-75
2022/06/26 13:39:10;;;;;;;4.40;2.33;;;;;;;;;;5059494;28;20044;-78
2022/06/26 13:41:36;;;;;;;4.00;2.28;;;;;;;;;;5057160;28;20032;-76
2022/06/26 13:44:02;;;;;;;9.02;2.80;;;;;;;;;;5059449;28;20051;-76
2022/06/26 13:46:28;;;;;;;5.57;2.20;;;;;;;;;;5059069;28;20032;-76
2022/06/26 13:48:55;;;;;;;4.82;2.03;;;;;;;;;;5055755;28;20083;-75
2022/06/26 13:51:21;;;;;;;3.50;2.00;;;;;;;;;;5056738;28;20100;-74
2022/06/26 13:53:47;;;;;;;4.00;2.03;;;;;;;;;;5056029;28;20025;-75
2022/06/26 13:56:13;;;;;;;7.00;2.47;;;;;;;;;;5055603;28;20069;-75
2022/06/26 13:58:39;;;;;;;3.60;1.70;;;;;;;;;;5063624;28;20032;-76
2022/06/26 14:01:06;;;;;;;2.80;2.00;;;;;;;;;;5058618;28;20057;-77
2022/06/26 14:03:32;;;;;;;4.25;1.75;;;;;;;;;;5055319;28;20028;-76
2022/06/26 14:05:58;;;;;;;6.15;1.55;;;;;;;;;;5053579;28;20025;-75
2022/06/26 14:08:24;;;;;;;3.80;1.83;;;;;;;;;;5055779;28;20036;-75
2022/06/26 14:10:50;;;;;;;2.08;1.30;;;;;;;;;;5059691;28;20033;-77
2022/06/26 14:13:16;;;;;;;6.25;1.58;;;;;;;;;;5063756;28;20056;-80
2022/06/26 14:15:42;;;;;;;3.70;1.65;;;;;;;;;;5064475;28;20033;-77
2022/06/26 14:18:08;;;;;;;8.65;2.15;;;;;;;;;;5064386;28;20055;-76
2022/06/26 14:20:34;;;;;;;7.80;2.47;;;;;;;;;;5065005;28;20029;-76
2022/06/26 14:25:58;;;;;;;;;;;;;;;;;;5064536;28;20043;-75
2022/06/26 14:28:24;;;;;;;7.32;1.60;;;;;;;;;;5063437;28;19905;-76
2022/06/26 14:30:50;;;;;;;5.25;1.83;;;;;;;;;;5064331;28;20029;-74
2022/06/26 14:33:16;;;;;;;4.57;1.58;;;;;;;;;;5064187;28;20022;-77
2022/06/26 14:35:43;;;;;;;5.82;1.65;;;;;;;;;;5063283;28;21052;-77
2022/06/26 14:38:09;;;;;;;5.90;2.08;;;;;;;;;;5061271;28;20116;-78
2022/06/26 14:40:35;;;;;;;4.80;1.70;;;;;;;;;;5058458;28;20029;-78
2022/06/26 14:43:01;;;;;;;3.78;1.35;;;;;;;;;;5058051;28;20108;-78
2022/06/26 14:45:27;;;;;;;8.10;1.58;;;;;;;;;;5059291;28;20045;-80
2022/06/26 14:47:53;;;;;;;4.60;1.50;;;;;;;;;;5060170;28;20056;-77
2022/06/26 14:50:19;;;;;;;9.27;1.80;;;;;;;;;;5059224;28;20028;-75